sensor_id;sensor_type;location;lat;lon;timestamp;pressure;altitude;pressure_sealevel;temperature;humidity
10638;BME280;47007;49.252;8.904;2024-02-23T00:00:09;97710.25;;;9.62;100.00
10638;BME280;47007;49.252;8.904;2024-02-23T00:00:53;97696.44;;;9.60;100.00
10638;BME280;47007;49.252;8.904;2024-02-23T00:01:34;97711.50;;;9.71;100.00
10638;BME280;47007;49.252;8.904;2024-02-23T00:02:16;97710.13;;;9.69;100.00
10638;BME280;47007;49.252;8.904;2024-02-23T00:02:58;97695.16;;;9.51;100.00
10638;BME280;47007;49.252;8.904;2024-02-23T00:03:40;97725.06;;;9.63;100.00
10638;BME280;47007;49.252;8.904;2024-02-23T00:04:22;97707.91;;;9.54;100.00
10638;BME280;47007;49.252;8.904;2024-02-23T00:05:04;97703.09;;;9.51;100.00
10638;BME280;47007;49.252;8.904;2024-02-23T00:05:46;97695.84;;;9.47;100.00
10638;BME280;47007;49.252;8.904;2024-02-23T00:06:28;97725.53;;;9.60;100.00
10638;BME280;47007;49.252;8.904;2024-02-23T00:07:10;97715.16;;;9.59;100.00
10638;BME280;47007;49.252;8.904;2024-02-23T00:07:52;97733.81;;;9.64;100.00
10638;BME280;47007;49.252;8.904;2024-02-23T00:08:34;97720.31;;;9.54;100.00
10638;BME280;47007;49.252;8.904;2024-02-23T00:09:16;97732.06;;;9.58;100.00
10638;BME280;47007;49.252;8.904;2024-02-23T00:09:58;97729.63;;;9.45;100.00
10638;BME280;47007;49.252;8.904;2024-02-23T00:10:39;97717.66;;;9.42;100.00
10638;BME280;47007;49.252;8.904;2024-02-23T00:11:21;97724.91;;;9.47;100.00
10638;BME280;47007;49.252;8.904;2024-02-23T00:12:03;97743.78;;;9.50;100.00
10638;BME280;47007;49.252;8.904;2024-02-23T00:12:46;97735.25;;;9.36;100.00
10638;BME280;47007;49.252;8.904;2024-02-23T00:13:29;97728.56;;;9.34;100.00
10638;BME280;47007;49.252;8.904;2024-02-23T00:14:11;97753.88;;;9.53;100.00
10638;BME280;47007;49.252;8.904;2024-02-23T00:14:53;97729.25;;;9.41;100.00
10638;BME280;47007;49.252;8.904;2024-02-23T00:15:35;97748.84;;;9.52;100.00
10638;BME280;47007;49.252;8.904;2024-02-23T00:16:17;97738.03;;;9.53;100.00
10638;BME280;47007;49.252;8.904;2024-02-23T00:16:59;97747.78;;;9.53;100.00
10638;BME280;47007;49.252;8.904;2024-02-23T00:17:43;97744.47;;;9.46;100.00
10638;BME280;47007;49.252;8.904;2024-02-23T00:18:25;97746.28;;;9.45;100.00
10638;BME280;47007;49.252;8.904;2024-02-23T00:19:10;97737.91;;;9.48;100.00
10638;BME280;47007;49.252;8.904;2024-02-23T00:19:52;97725.94;;;9.34;100.00
10638;BME280;47007;49.252;8.904;2024-02-23T00:20:35;97724.53;;;9.31;100.00
10638;BME280;47007;49.252;8.904;2024-02-23T00:21:18;97745.72;;;9.43;100.00
10638;BME280;47007;49.252;8.904;2024-02-23T00:21:59;97740.66;;;9.42;100.00
10638;BME280;47007;49.252;8.904;2024-02-23T00:22:41;97722.66;;;9.20;100.00
10638;BME280;47007;49.252;8.904;2024-02-23T00:23:23;97745.25;;;9.34;100.00
10638;BME280;47007;49.252;8.904;2024-02-23T00:24:06;97745.69;;;9.31;100.00
10638;BME280;47007;49.252;8.904;2024-02-23T00:24:48;97744.06;;;9.30;100.00
10638;BME280;47007;49.252;8.904;2024-02-23T00:25:29;97738.78;;;9.30;100.00
10638;BME280;47007;49.252;8.904;2024-02-23T00:26:11;97737.53;;;9.33;100.00
10638;BME280;47007;49.252;8.904;2024-02-23T00:26:53;97738.44;;;9.27;100.00
10638;BME280;47007;49.252;8.904;2024-02-23T00:27:35;97730.75;;;9.25;100.00
10638;BME280;47007;49.252;8.904;2024-02-23T00:28:18;97735.06;;;9.20;100.00
10638;BME280;47007;49.252;8.904;2024-02-23T00:28:59;97702.16;;;9.04;100.00
10638;BME280;47007;49.252;8.904;2024-02-23T00:29:41;97732.78;;;9.23;100.00
10638;BME280;47007;49.252;8.904;2024-02-23T00:30:23;97738.88;;;9.24;100.00
10638;BME280;47007;49.252;8.904;2024-02-23T00:31:05;97729.69;;;9.15;100.00
10638;BME280;47007;49.252;8.904;2024-02-23T00:31:47;97735.06;;;9.20;100.00
10638;BME280;47007;49.252;8.904;2024-02-23T00:32:29;97737.28;;;9.23;100.00
10638;BME280;47007;49.252;8.904;2024-02-23T00:33:11;97746.22;;;9.22;100.00
10638;BME280;47007;49.252;8.904;2024-02-23T00:33:52;97741.72;;;9.11;100.00
10638;BME280;47007;49.252;8.904;2024-02-23T00:34:34;97755.75;;;9.11;100.00
10638;BME280;47007;49.252;8.904;2024-02-23T00:35:16;97742.34;;;8.94;100.00
10638;BME280;47007;49.252;8.904;2024-02-23T00:35:58;97768.16;;;9.11;100.00
10638;BME280;47007;49.252;8.904;2024-02-23T00:36:40;97769.16;;;9.10;100.00
10638;BME280;47007;49.252;8.904;2024-02-23T00:37:22;97761.78;;;9.00;100.00
10638;BME280;47007;49.252;8.904;2024-02-23T00:38:04;97750.63;;;8.98;100.00
10638;BME280;47007;49.252;8.904;2024-02-23T00:38:46;97780.91;;;9.14;100.00
10638;BME280;47007;49.252;8.904;2024-02-23T00:39:28;97779.31;;;9.13;100.00
10638;BME280;47007;49.252;8.904;2024-02-23T00:40:10;97770.41;;;9.07;100.00
10638;BME280;47007;49.252;8.904;2024-02-23T00:40:52;97783.31;;;9.15;100.00
10638;BME280;47007;49.252;8.904;2024-02-23T00:41:35;97782.53;;;9.15;100.00
10638;BME280;47007;49.252;8.904;2024-02-23T00:42:17;97788.16;;;9.18;100.00
10638;BME280;47007;49.252;8.904;2024-02-23T00:42:59;97785.28;;;9.20;100.00
10638;BME280;47007;49.252;8.904;2024-02-23T00:43:41;97755.09;;;8.97;100.00
10638;BME280;47007;49.252;8.904;2024-02-23T00:44:23;97778.84;;;9.16;100.00
10638;BME280;47007;49.252;8.904;2024-02-23T00:45:06;97746.97;;;8.99;100.00
10638;BME280;47007;49.252;8.904;2024-02-23T00:45:48;97767.88;;;9.00;100.00
10638;BME280;47007;49.252;8.904;2024-02-23T00:46:29;97781.78;;;9.08;100.00
10638;BME280;47007;49.252;8.904;2024-02-23T00:47:11;97791.50;;;9.14;100.00
10638;BME280;47007;49.252;8.904;2024-02-23T00:47:53;97796.31;;;9.17;100.00
10638;BME280;47007;49.252;8.904;2024-02-23T00:48:35;97794.34;;;9.12;100.00
10638;BME280;47007;49.252;8.904;2024-02-23T00:49:17;97750.41;;;8.81;100.00
10638;BME280;47007;49.252;8.904;2024-02-23T00:49:59;97786.94;;;9.02;100.00
10638;BME280;47007;49.252;8.904;2024-02-23T00:50:41;97783.25;;;9.04;100.00
10638;BME280;47007;49.252;8.904;2024-02-23T00:51:23;97771.41;;;8.94;100.00
10638;BME280;47007;49.252;8.904;2024-02-23T00:52:04;97788.06;;;8.95;100.00
10638;BME280;47007;49.252;8.904;2024-02-23T00:52:46;97785.19;;;8.96;100.00
10638;BME280;47007;49.252;8.904;2024-02-23T00:53:30;97763.50;;;8.76;100.00
10638;BME280;47007;49.252;8.904;2024-02-23T00:54:12;97793.13;;;8.96;100.00
10638;BME280;47007;49.252;8.904;2024-02-23T00:54:54;97783.00;;;8.93;100.00
10638;BME280;47007;49.252;8.904;2024-02-23T00:55:35;97756.59;;;8.75;100.00
10638;BME280;47007;49.252;8.904;2024-02-23T00:56:17;97760.88;;;8.76;100.00
10638;BME280;47007;49.252;8.904;2024-02-23T00:56:59;97782.13;;;8.81;100.00
10638;BME280;47007;49.252;8.904;2024-02-23T00:57:41;97750.25;;;8.64;100.00
10638;BME280;47007;49.252;8.904;2024-02-23T00:58:23;97778.22;;;8.84;100.00
10638;BME280;47007;49.252;8.904;2024-02-23T00:59:04;97777.00;;;8.86;100.00
10638;BME280;47007;49.252;8.904;2024-02-23T00:59:46;97753.81;;;8.70;100.00
10638;BME280;47007;49.252;8.904;2024-02-23T01:00:28;97778.44;;;8.82;100.00
10638;BME280;47007;49.252;8.904;2024-02-23T01:01:10;97778.09;;;8.79;100.00
10638;BME280;47007;49.252;8.904;2024-02-23T01:01:51;97782.34;;;8.80;100.00
10638;BME280;47007;49.252;8.904;2024-02-23T01:02:33;97785.44;;;8.77;100.00
10638;BME280;47007;49.252;8.904;2024-02-23T01:03:15;97792.34;;;8.78;100.00
10638;BME280;47007;49.252;8.904;2024-02-23T01:03:57;97789.47;;;8.79;100.00
10638;BME280;47007;49.252;8.904;2024-02-23T01:04:39;97795.19;;;8.76;100.00
10638;BME280;47007;49.252;8.904;2024-02-23T01:05:21;97787.84;;;8.78;100.00
10638;BME280;47007;49.252;8.904;2024-02-23T01:06:03;97765.28;;;8.64;100.00
10638;BME280;47007;49.252;8.904;2024-02-23T01:06:45;97797.38;;;8.79;100.00
10638;BME280;47007;49.252;8.904;2024-02-23T01:07:27;97800.47;;;8.76;100.00
10638;BME280;47007;49.252;8.904;2024-02-23T01:08:09;97795.19;;;8.76;100.00
10638;BME280;47007;49.252;8.904;2024-02-23T01:08:51;97810.47;;;8.74;100.00
10638;BME280;47007;49.252;8.904;2024-02-23T01:09:32;97803.34;;;8.75;100.00
10638;BME280;47007;49.252;8.904;2024-02-23T01:10:14;97784.19;;;8.61;100.00
10638;BME280;47007;49.252;8.904;2024-02-23T01:10:56;97792.72;;;8.63;100.00
10638;BME280;47007;49.252;8.904;2024-02-23T01:11:38;97786.25;;;8.59;100.00
10638;BME280;47007;49.252;8.904;2024-02-23T01:12:20;97799.91;;;8.74;100.00
10638;BME280;47007;49.252;8.904;2024-02-23T01:13:02;97806.41;;;8.72;100.00
10638;BME280;47007;49.252;8.904;2024-02-23T01:13:43;97806.41;;;8.72;100.00
10638;BME280;47007;49.252;8.904;2024-02-23T01:14:25;97812.28;;;8.74;100.00
10638;BME280;47007;49.252;8.904;2024-02-23T01:15:07;97790.28;;;8.61;100.00
10638;BME280;47007;49.252;8.904;2024-02-23T01:15:49;97805.97;;;8.75;100.00
10638;BME280;47007;49.252;8.904;2024-02-23T01:16:31;97807.13;;;8.79;100.00
10638;BME280;47007;49.252;8.904;2024-02-23T01:17:14;97789.38;;;8.68;100.00
10638;BME280;47007;49.252;8.904;2024-02-23T01:17:57;97790.66;;;8.65;100.00
10638;BME280;47007;49.252;8.904;2024-02-23T01:18:39;97798.50;;;8.72;100.00
10638;BME280;47007;49.252;8.904;2024-02-23T01:19:20;97761.00;;;8.45;100.00
10638;BME280;47007;49.252;8.904;2024-02-23T01:20:03;97803.63;;;8.67;100.00
10638;BME280;47007;49.252;8.904;2024-02-23T01:20:45;97810.50;;;8.68;100.00
10638;BME280;47007;49.252;8.904;2024-02-23T01:21:27;97811.53;;;8.67;100.00
10638;BME280;47007;49.252;8.904;2024-02-23T01:22:09;97806.13;;;8.61;100.00
10638;BME280;47007;49.252;8.904;2024-02-23T01:22:50;97798.25;;;8.55;100.00
10638;BME280;47007;49.252;8.904;2024-02-23T01:23:32;97805.75;;;8.58;100.00
10638;BME280;47007;49.252;8.904;2024-02-23T01:24:14;97788.81;;;8.47;100.00
10638;BME280;47007;49.252;8.904;2024-02-23T01:24:56;97784.97;;;8.43;100.00
10638;BME280;47007;49.252;8.904;2024-02-23T01:25:37;97799.97;;;8.49;100.00
10638;BME280;47007;49.252;8.904;2024-02-23T01:26:19;97799.53;;;8.52;100.00
10638;BME280;47007;49.252;8.904;2024-02-23T01:27:01;97819.38;;;8.55;100.00
10638;BME280;47007;49.252;8.904;2024-02-23T01:27:43;97786.47;;;8.39;100.00
10638;BME280;47007;49.252;8.904;2024-02-23T01:28:26;97793.88;;;8.49;100.00
10638;BME280;47007;49.252;8.904;2024-02-23T01:29:07;97808.19;;;8.59;100.00
10638;BME280;47007;49.252;8.904;2024-02-23T01:29:49;97788.22;;;8.45;100.00
10638;BME280;47007;49.252;8.904;2024-02-23T01:30:31;97805.16;;;8.56;100.00
10638;BME280;47007;49.252;8.904;2024-02-23T01:31:13;97793.19;;;8.53;100.00
10638;BME280;47007;49.252;8.904;2024-02-23T01:31:55;97794.59;;;8.56;100.00
10638;BME280;47007;49.252;8.904;2024-02-23T01:32:36;97782.13;;;8.45;100.00
10638;BME280;47007;49.252;8.904;2024-02-23T01:33:21;97804.00;;;8.52;100.00
10638;BME280;47007;49.252;8.904;2024-02-23T01:34:03;97797.59;;;8.41;100.00
10638;BME280;47007;49.252;8.904;2024-02-23T01:34:45;97773.38;;;8.26;100.00
10638;BME280;47007;49.252;8.904;2024-02-23T01:35:27;97785.16;;;8.23;100.00
10638;BME280;47007;49.252;8.904;2024-02-23T01:36:09;97809.47;;;8.32;100.00
10638;BME280;47007;49.252;8.904;2024-02-23T01:36:51;97825.81;;;8.41;100.00
10638;BME280;47007;49.252;8.904;2024-02-23T01:37:33;97830.53;;;8.39;100.00
10638;BME280;47007;49.252;8.904;2024-02-23T01:38:15;97841.09;;;8.39;100.00
10638;BME280;47007;49.252;8.904;2024-02-23T01:39:02;97836.63;;;8.39;100.00
10638;BME280;47007;49.252;8.904;2024-02-23T01:39:43;97838.59;;;8.44;100.00
10638;BME280;47007;49.252;8.904;2024-02-23T01:40:26;97830.44;;;8.45;100.00
10638;BME280;47007;49.252;8.904;2024-02-23T01:41:08;97822.63;;;8.39;100.00
10638;BME280;47007;49.252;8.904;2024-02-23T01:41:50;97831.09;;;8.41;100.00
10638;BME280;47007;49.252;8.904;2024-02-23T01:42:31;97819.00;;;8.33;100.00
10638;BME280;47007;49.252;8.904;2024-02-23T01:43:13;97808.84;;;8.30;100.00
10638;BME280;47007;49.252;8.904;2024-02-23T01:43:55;97832.06;;;8.46;100.00
10638;BME280;47007;49.252;8.904;2024-02-23T01:44:37;97831.25;;;8.46;100.00
10638;BME280;47007;49.252;8.904;2024-02-23T01:45:18;97834.94;;;8.45;100.00
10638;BME280;47007;49.252;8.904;2024-02-23T01:46:00;97835.72;;;8.45;100.00
10638;BME280;47007;49.252;8.904;2024-02-23T01:46:43;97814.91;;;8.30;100.00
10638;BME280;47007;49.252;8.904;2024-02-23T01:47:25;97825.81;;;8.41;100.00
10638;BME280;47007;49.252;8.904;2024-02-23T01:48:07;97824.66;;;8.37;100.00
10638;BME280;47007;49.252;8.904;2024-02-23T01:48:49;97813.09;;;8.31;100.00
10638;BME280;47007;49.252;8.904;2024-02-23T01:49:32;97828.47;;;8.41;100.00
10638;BME280;47007;49.252;8.904;2024-02-23T01:50:15;97827.09;;;8.38;100.00
10638;BME280;47007;49.252;8.904;2024-02-23T01:50:57;97830.56;;;8.32;100.00
10638;BME280;47007;49.252;8.904;2024-02-23T01:51:38;97841.13;;;8.32;100.00
10638;BME280;47007;49.252;8.904;2024-02-23T01:52:21;97830.53;;;8.39;100.00
10638;BME280;47007;49.252;8.904;2024-02-23T01:53:03;97847.19;;;8.39;100.00
10638;BME280;47007;49.252;8.904;2024-02-23T01:53:45;97841.44;;;8.42;100.00
10638;BME280;47007;49.252;8.904;2024-02-23T01:54:27;97826.50;;;8.36;100.00
10638;BME280;47007;49.252;8.904;2024-02-23T01:55:10;97818.44;;;8.24;100.00
10638;BME280;47007;49.252;8.904;2024-02-23T01:55:53;97844.38;;;8.34;100.00
10638;BME280;47007;49.252;8.904;2024-02-23T01:56:36;97855.09;;;8.39;100.00
10638;BME280;47007;49.252;8.904;2024-02-23T01:57:18;97857.75;;;8.39;100.00
10638;BME280;47007;49.252;8.904;2024-02-23T01:58:20;97842.59;;;8.28;100.00
10638;BME280;47007;49.252;8.904;2024-02-23T01:59:02;97835.94;;;8.19;100.00
10638;BME280;47007;49.252;8.904;2024-02-23T01:59:45;97835.94;;;8.19;100.00
10638;BME280;47007;49.252;8.904;2024-02-23T02:00:27;97862.03;;;8.34;100.00
10638;BME280;47007;49.252;8.904;2024-02-23T02:01:09;97859.41;;;8.34;100.00
10638;BME280;47007;49.252;8.904;2024-02-23T02:01:51;97854.97;;;8.27;100.00
10638;BME280;47007;49.252;8.904;2024-02-23T02:02:33;97864.25;;;8.37;100.00
10638;BME280;47007;49.252;8.904;2024-02-23T02:03:15;97867.53;;;8.32;100.00
10638;BME280;47007;49.252;8.904;2024-02-23T02:03:58;97865.88;;;8.31;100.00
10638;BME280;47007;49.252;8.904;2024-02-23T02:04:40;97858.19;;;8.29;100.00
10638;BME280;47007;49.252;8.904;2024-02-23T02:05:22;97859.78;;;8.30;100.00
10638;BME280;47007;49.252;8.904;2024-02-23T02:06:09;97867.31;;;8.34;100.00
10638;BME280;47007;49.252;8.904;2024-02-23T02:06:50;97869.34;;;8.32;100.00
10638;BME280;47007;49.252;8.904;2024-02-23T02:07:33;97863.44;;;8.29;100.00
10638;BME280;47007;49.252;8.904;2024-02-23T02:08:15;97862.63;;;8.36;100.00
10638;BME280;47007;49.252;8.904;2024-02-23T02:08:57;97868.94;;;8.35;100.00
10638;BME280;47007;49.252;8.904;2024-02-23T02:09:39;97860.66;;;8.24;100.00
10638;BME280;47007;49.252;8.904;2024-02-23T02:10:21;97857.16;;;8.30;100.00
10638;BME280;47007;49.252;8.904;2024-02-23T02:11:03;97854.16;;;8.27;100.00
10638;BME280;47007;49.252;8.904;2024-02-23T02:11:48;97828.22;;;8.17;100.00
10638;BME280;47007;49.252;8.904;2024-02-23T02:12:30;97854.13;;;8.34;100.00
10638;BME280;47007;49.252;8.904;2024-02-23T02:13:12;97834.72;;;8.21;100.00
10638;BME280;47007;49.252;8.904;2024-02-23T02:13:54;97822.16;;;8.17;100.00
10638;BME280;47007;49.252;8.904;2024-02-23T02:14:36;97822.59;;;8.14;100.00
10638;BME280;47007;49.252;8.904;2024-02-23T02:15:17;97849.69;;;8.27;100.00
10638;BME280;47007;49.252;8.904;2024-02-23T02:16:00;97835.59;;;8.15;100.00
10638;BME280;47007;49.252;8.904;2024-02-23T02:16:43;97838.97;;;8.22;100.00
10638;BME280;47007;49.252;8.904;2024-02-23T02:17:25;97851.72;;;8.25;100.00
10638;BME280;47007;49.252;8.904;2024-02-23T02:18:08;97865.69;;;8.33;100.00
10638;BME280;47007;49.252;8.904;2024-02-23T02:18:49;97870.97;;;8.33;100.00
10638;BME280;47007;49.252;8.904;2024-02-23T02:19:31;97872.00;;;8.32;100.00
10638;BME280;47007;49.252;8.904;2024-02-23T02:20:13;97785.13;;;7.80;100.00
10638;BME280;47007;49.252;8.904;2024-02-23T02:20:56;97842.44;;;8.16;100.00
10638;BME280;47007;49.252;8.904;2024-02-23T02:21:39;97856.19;;;8.25;100.00
10638;BME280;47007;49.252;8.904;2024-02-23T02:22:21;97862.63;;;8.36;100.00
10638;BME280;47007;49.252;8.904;2024-02-23T02:23:03;97857.59;;;8.27;100.00
10638;BME280;47007;49.252;8.904;2024-02-23T02:23:45;97846.94;;;8.16;100.00
10638;BME280;47007;49.252;8.904;2024-02-23T02:24:27;97865.53;;;8.27;100.00
10638;BME280;47007;49.252;8.904;2024-02-23T02:25:09;97868.16;;;8.27;100.00
10638;BME280;47007;49.252;8.904;2024-02-23T02:25:55;97879.06;;;8.31;100.00
10638;BME280;47007;49.252;8.904;2024-02-23T02:26:37;97851.44;;;8.09;100.00
10638;BME280;47007;49.252;8.904;2024-02-23T02:27:19;97875.28;;;8.27;100.00
10638;BME280;47007;49.252;8.904;2024-02-23T02:28:01;97872.19;;;8.30;100.00
10638;BME280;47007;49.252;8.904;2024-02-23T02:28:42;97872.38;;;8.28;100.00
10638;BME280;47007;49.252;8.904;2024-02-23T02:29:24;97888.81;;;8.30;100.00
10638;BME280;47007;49.252;8.904;2024-02-23T02:30:06;97881.72;;;8.31;100.00
10638;BME280;47007;49.252;8.904;2024-02-23T02:30:49;97889.63;;;8.31;100.00
10638;BME280;47007;49.252;8.904;2024-02-23T02:31:31;97874.28;;;8.21;100.00
10638;BME280;47007;49.252;8.904;2024-02-23T02:32:18;97866.06;;;8.11;100.00
10638;BME280;47007;49.252;8.904;2024-02-23T02:33:00;97874.94;;;8.17;100.00
10638;BME280;47007;49.252;8.904;2024-02-23T02:33:42;97878.94;;;8.26;100.00
10638;BME280;47007;49.252;8.904;2024-02-23T02:34:24;97887.84;;;8.32;100.00
10638;BME280;47007;49.252;8.904;2024-02-23T02:35:06;97893.72;;;8.34;100.00
10638;BME280;47007;49.252;8.904;2024-02-23T02:35:48;97861.38;;;8.13;100.00
10638;BME280;47007;49.252;8.904;2024-02-23T02:36:31;97889.84;;;8.36;100.00
10638;BME280;47007;49.252;8.904;2024-02-23T02:37:13;97882.31;;;8.40;100.00
10638;BME280;47007;49.252;8.904;2024-02-23T02:37:55;97887.13;;;8.43;100.00
10638;BME280;47007;49.252;8.904;2024-02-23T02:38:37;97892.78;;;8.46;100.00
10638;BME280;47007;49.252;8.904;2024-02-23T02:39:19;97865.47;;;8.34;100.00
10638;BME280;47007;49.252;8.904;2024-02-23T02:40:02;97886.50;;;8.47;100.00
10638;BME280;47007;49.252;8.904;2024-02-23T02:40:44;97895.00;;;8.49;100.00
10638;BME280;47007;49.252;8.904;2024-02-23T02:41:28;97879.41;;;8.41;100.00
10638;BME280;47007;49.252;8.904;2024-02-23T02:42:11;97894.19;;;8.49;100.00
10638;BME280;47007;49.252;8.904;2024-02-23T02:42:53;97878.34;;;8.49;100.00
10638;BME280;47007;49.252;8.904;2024-02-23T02:43:35;97853.34;;;8.26;100.00
10638;BME280;47007;49.252;8.904;2024-02-23T02:44:17;97886.09;;;8.44;100.00
10638;BME280;47007;49.252;8.904;2024-02-23T02:44:59;97898.66;;;8.48;100.00
10638;BME280;47007;49.252;8.904;2024-02-23T02:45:41;97888.72;;;8.50;100.00
10638;BME280;47007;49.252;8.904;2024-02-23T02:46:23;97900.06;;;8.51;100.00
10638;BME280;47007;49.252;8.904;2024-02-23T02:47:05;97884.50;;;8.43;100.00
10638;BME280;47007;49.252;8.904;2024-02-23T02:47:47;97899.06;;;8.52;100.00
10638;BME280;47007;49.252;8.904;2024-02-23T02:48:29;97900.66;;;8.53;100.00
10638;BME280;47007;49.252;8.904;2024-02-23T02:49:10;97898.59;;;8.55;100.00
10638;BME280;47007;49.252;8.904;2024-02-23T02:49:52;97900.59;;;8.59;100.00
10638;BME280;47007;49.252;8.904;2024-02-23T02:50:34;97905.16;;;8.52;100.00
10638;BME280;47007;49.252;8.904;2024-02-23T02:51:17;97884.50;;;8.43;100.00
10638;BME280;47007;49.252;8.904;2024-02-23T02:51:58;97881.72;;;8.38;100.00
10638;BME280;47007;49.252;8.904;2024-02-23T02:52:40;97903.53;;;8.51;100.00
10638;BME280;47007;49.252;8.904;2024-02-23T02:53:22;97872.81;;;8.32;100.00
10638;BME280;47007;49.252;8.904;2024-02-23T02:54:04;97875.41;;;8.39;100.00
10638;BME280;47007;49.252;8.904;2024-02-23T02:54:46;97874.22;;;8.35;100.00
10638;BME280;47007;49.252;8.904;2024-02-23T02:55:27;97898.50;;;8.43;100.00
10638;BME280;47007;49.252;8.904;2024-02-23T02:56:09;97887.63;;;8.33;100.00
10638;BME280;47007;49.252;8.904;2024-02-23T02:56:51;97896.66;;;8.44;100.00
10638;BME280;47007;49.252;8.904;2024-02-23T02:57:35;97906.19;;;8.45;100.00
10638;BME280;47007;49.252;8.904;2024-02-23T02:58:17;97875.63;;;8.30;100.00
10638;BME280;47007;49.252;8.904;2024-02-23T02:58:59;97896.06;;;8.42;100.00
10638;BME280;47007;49.252;8.904;2024-02-23T02:59:41;97893.44;;;8.42;100.00
10638;BME280;47007;49.252;8.904;2024-02-23T03:00:22;97877.31;;;8.25;100.00
10638;BME280;47007;49.252;8.904;2024-02-23T03:01:04;97874.28;;;8.21;100.00
10638;BME280;47007;49.252;8.904;2024-02-23T03:01:46;97882.81;;;8.23;100.00
10638;BME280;47007;49.252;8.904;2024-02-23T03:02:31;97885.38;;;8.30;100.00
10638;BME280;47007;49.252;8.904;2024-02-23T03:03:13;97902.63;;;8.39;100.00
10638;BME280;47007;49.252;8.904;2024-02-23T03:03:55;97900.78;;;8.40;100.00
10638;BME280;47007;49.252;8.904;2024-02-23T03:04:37;97909.13;;;8.37;100.00
10638;BME280;47007;49.252;8.904;2024-02-23T03:05:18;97898.41;;;8.32;100.00
10638;BME280;47007;49.252;8.904;2024-02-23T03:06:00;97884.56;;;8.29;100.00
10638;BME280;47007;49.252;8.904;2024-02-23T03:06:42;97902.63;;;8.39;100.00
10638;BME280;47007;49.252;8.904;2024-02-23T03:07:24;97900.72;;;8.46;100.00
10638;BME280;47007;49.252;8.904;2024-02-23T03:08:06;97904.97;;;8.47;100.00
10638;BME280;47007;49.252;8.904;2024-02-23T03:08:48;97903.13;;;8.48;100.00
10638;BME280;47007;49.252;8.904;2024-02-23T03:09:30;97887.41;;;8.35;100.00
10638;BME280;47007;49.252;8.904;2024-02-23T03:10:11;97894.31;;;8.36;100.00
10638;BME280;47007;49.252;8.904;2024-02-23T03:10:53;97902.16;;;8.42;100.00
10638;BME280;47007;49.252;8.904;2024-02-23T03:11:35;97887.22;;;8.29;100.00
10638;BME280;47007;49.252;8.904;2024-02-23T03:12:17;97886.63;;;8.27;100.00
10638;BME280;47007;49.252;8.904;2024-02-23T03:12:59;97910.28;;;8.41;100.00
10638;BME280;47007;49.252;8.904;2024-02-23T03:13:41;97904.22;;;8.40;100.00
10638;BME280;47007;49.252;8.904;2024-02-23T03:14:22;97881.13;;;8.29;100.00
10638;BME280;47007;49.252;8.904;2024-02-23T03:15:05;97905.19;;;8.46;100.00
10638;BME280;47007;49.252;8.904;2024-02-23T03:15:47;97915.75;;;8.46;100.00
10638;BME280;47007;49.252;8.904;2024-02-23T03:16:29;97914.94;;;8.45;100.00
10638;BME280;47007;49.252;8.904;2024-02-23T03:17:12;97906.41;;;8.43;100.00
10638;BME280;47007;49.252;8.904;2024-02-23T03:17:55;97905.59;;;8.43;100.00
10638;BME280;47007;49.252;8.904;2024-02-23T03:18:37;97895.72;;;8.38;100.00
10638;BME280;47007;49.252;8.904;2024-02-23T03:19:19;97910.28;;;8.41;100.00
10638;BME280;47007;49.252;8.904;2024-02-23T03:20:04;97911.91;;;8.42;100.00
10638;BME280;47007;49.252;8.904;2024-02-23T03:20:47;97915.00;;;8.39;100.00
10638;BME280;47007;49.252;8.904;2024-02-23T03:21:30;97890.50;;;8.25;100.00
10638;BME280;47007;49.252;8.904;2024-02-23T03:22:12;97913.81;;;8.35;100.00
10638;BME280;47007;49.252;8.904;2024-02-23T03:22:54;97916.22;;;8.36;100.00
10638;BME280;47007;49.252;8.904;2024-02-23T03:23:36;97918.22;;;8.41;100.00
10638;BME280;47007;49.252;8.904;2024-02-23T03:24:18;97919.25;;;8.40;100.00
10638;BME280;47007;49.252;8.904;2024-02-23T03:25:00;97895.94;;;8.37;100.00
10638;BME280;47007;49.252;8.904;2024-02-23T03:25:42;97899.81;;;8.34;100.00
10638;BME280;47007;49.252;8.904;2024-02-23T03:26:23;97912.50;;;8.44;100.00
10638;BME280;47007;49.252;8.904;2024-02-23T03:27:05;97896.88;;;8.42;100.00
10638;BME280;47007;49.252;8.904;2024-02-23T03:27:47;97903.56;;;8.45;100.00
10638;BME280;47007;49.252;8.904;2024-02-23T03:28:29;97901.13;;;8.43;100.00
10638;BME280;47007;49.252;8.904;2024-02-23T03:29:10;97876.50;;;8.24;100.00
10638;BME280;47007;49.252;8.904;2024-02-23T03:29:52;97903.19;;;8.41;100.00
10638;BME280;47007;49.252;8.904;2024-02-23T03:30:34;97901.94;;;8.44;100.00
10638;BME280;47007;49.252;8.904;2024-02-23T03:31:18;97875.31;;;8.20;100.00
10638;BME280;47007;49.252;8.904;2024-02-23T03:32:00;97894.56;;;8.27;100.00
10638;BME280;47007;49.252;8.904;2024-02-23T03:32:43;97906.69;;;8.35;100.00
10638;BME280;47007;49.252;8.904;2024-02-23T03:33:24;97917.19;;;8.42;100.00
10638;BME280;47007;49.252;8.904;2024-02-23T03:34:06;97913.91;;;8.46;100.00
10638;BME280;47007;49.252;8.904;2024-02-23T03:34:49;97907.81;;;8.46;100.00
10638;BME280;47007;49.252;8.904;2024-02-23T03:35:31;97878.72;;;8.27;100.00
10638;BME280;47007;49.252;8.904;2024-02-23T03:36:12;97879.75;;;8.26;100.00
10638;BME280;47007;49.252;8.904;2024-02-23T03:36:54;97910.69;;;8.44;100.00
10638;BME280;47007;49.252;8.904;2024-02-23T03:37:36;97903.41;;;8.40;100.00
10638;BME280;47007;49.252;8.904;2024-02-23T03:38:18;97889.44;;;8.33;100.00
10638;BME280;47007;49.252;8.904;2024-02-23T03:39:00;97883.88;;;8.16;100.00
10638;BME280;47007;49.252;8.904;2024-02-23T03:39:42;97882.09;;;8.10;100.00
10638;BME280;47007;49.252;8.904;2024-02-23T03:40:24;97896.22;;;8.22;100.00
10638;BME280;47007;49.252;8.904;2024-02-23T03:41:05;97907.38;;;8.24;100.00
10638;BME280;47007;49.252;8.904;2024-02-23T03:41:48;97908.19;;;8.24;100.00
10638;BME280;47007;49.252;8.904;2024-02-23T03:42:30;97892.44;;;8.11;100.00
10638;BME280;47007;49.252;8.904;2024-02-23T03:43:11;97896.41;;;8.20;100.00